Time;durP1;ratioP1;P1;durP2;ratioP2;P2;SDS_P1;SDS_P2;PMS_P1;PMS_P2;Temp;Humidity;BMP_temperature;BMP_pressure;BME280_temperature;BME280_humidity;BME280_pressure;Samples;Min_cycle;Max_cycle;Signal;HPM_P1;HPM_P2
2022/04/27 00:01:45;;;;;;;;;;;;;;;7.57;54.19;102267.00;5067117;28;19963;-79
2022/04/27 00:04:10;;;;;;;;;;;;;;;7.56;54.01;102270.47;5069930;28;19936;-79
2022/04/27 00:06:36;;;;;;;;;;;;;;;7.52;53.99;102271.28;5064329;28;20386;-79
2022/04/27 00:09:01;;;;;;;;;;;;;;;7.47;54.05;102262.63;5068454;28;19916;-79
2022/04/27 00:11:26;;;;;;;;;;;;;;;7.41;54.53;102269.44;5070407;28;19928;-79
2022/04/27 00:13:52;;;;;;;;;;;;;;;7.37;54.56;102267.69;5064767;28;20385;-79
2022/04/27 00:16:17;;;;;;;;;;;;;;;7.34;54.61;102262.50;5067318;28;19920;-79
2022/04/27 00:18:42;;;;;;;;;;;;;;;7.34;54.19;102261.59;5066543;28;20351;-79
2022/04/27 00:21:07;;;;;;;;;;;;;;;7.31;54.35;102257.28;5069423;28;19923;-79
2022/04/27 00:23:34;;;;;;;;;;;;;;;7.27;54.54;102258.09;5068179;28;20407;-79
2022/04/27 00:25:59;;;;;;;;;;;;;;;7.22;54.69;102262.34;5049668;28;19914;-79
2022/04/27 00:28:24;;;;;;;;;;;;;;;7.16;54.73;102267.47;5069561;28;20336;-78
2022/04/27 00:30:50;;;;;;;;;;;;;;;7.03;54.95;102267.28;5072222;28;19912;-79
2022/04/27 00:33:15;;;;;;;;;;;;;;;6.83;55.70;102261.88;5074782;28;19943;-79
2022/04/27 00:35:40;;;;;;;;;;;;;;;6.74;55.69;102267.81;5066735;28;19916;-79
2022/04/27 00:38:05;;;;;;;;;;;;;;;6.72;56.11;102274.66;5064248;28;20283;-79
2022/04/27 00:40:31;;;;;;;;;;;;;;;6.70;55.81;102260.84;5069886;28;19912;-79
2022/04/27 00:42:56;;;;;;;;;;;;;;;6.68;55.91;102265.13;5065369;28;19998;-78
2022/04/27 00:45:21;;;;;;;;;;;;;;;6.67;56.39;102269.44;5063986;28;19979;-78
2022/04/27 00:47:46;;;;;;;;;;;;;;;6.67;56.53;102266.84;5066770;28;19951;-79
2022/04/27 00:50:12;;;;;;;;;;;;;;;6.66;56.30;102269.44;5065255;28;19966;-78
2022/04/27 00:52:38;;;;;;;;;;;;;;;6.62;56.65;102275.41;5068825;28;20374;-78
2022/04/27 00:55:03;;;;;;;;;;;;;;;6.63;56.46;102267.66;5067316;28;20363;-79
2022/04/27 00:57:29;;;;;;;;;;;;;;;6.62;56.61;102268.50;5061929;28;19922;-79
2022/04/27 00:59:54;;;;;;;;;;;;;;;6.64;56.72;102271.13;5049499;28;19912;-79
2022/04/27 01:02:19;;;;;;;;;;;;;;;6.60;56.97;102277.09;5066496;28;19921;-79
2022/04/27 01:04:45;;;;;;;;;;;;;;;6.51;56.82;102267.50;5069100;28;19935;-79
2022/04/27 01:07:13;;;;;;;;;;;;;;;6.44;57.25;102278.56;5065476;28;19912;-78
2022/04/27 01:09:38;;;;;;;;;;;;;;;6.41;56.87;102274.25;5064743;28;19962;-79
2022/04/27 01:12:04;;;;;;;;;;;;;;;6.40;57.58;102276.81;5068773;28;19920;-79
2022/04/27 01:14:40;;;;;;;;;;;;;;;6.43;57.40;102276.84;5063185;28;20058;-78
2022/04/27 01:17:05;;;;;;;;;;;;;;;6.41;57.16;102278.53;5064522;28;20322;-78
2022/04/27 01:19:31;;;;;;;;;;;;;;;6.37;57.41;102275.03;5067138;28;19945;-78
2022/04/27 01:21:56;;;;;;;;;;;;;;;6.29;57.62;102277.50;5065177;28;19927;-78
2022/04/27 01:24:24;;;;;;;;;;;;;;;6.19;57.46;102281.66;5063239;28;19920;-78
2022/04/27 01:26:49;;;;;;;;;;;;;;;6.14;58.48;102282.44;5065699;28;20307;-78
2022/04/27 01:29:15;;;;;;;;;;;;;;;6.15;58.20;102290.19;5065094;28;19936;-78
2022/04/27 01:31:41;;;;;;;;;;;;;;;6.11;58.36;102291.03;5067368;28;20004;-78
2022/04/27 01:34:06;;;;;;;;;;;;;;;6.01;59.06;102296.84;5072429;28;20423;-79
2022/04/27 01:36:31;;;;;;;;;;;;;;;5.92;58.80;102294.97;5064486;28;19919;-78
2022/04/27 01:38:56;;;;;;;;;;;;;;;5.88;58.91;102304.38;5067195;28;19919;-78
2022/04/27 01:41:21;;;;;;;;;;;;;;;5.90;59.26;102301.81;5069906;28;19916;-78
2022/04/27 01:43:46;;;;;;;;;;;;;;;5.90;58.78;102305.28;5065523;28;19912;-78
2022/04/27 01:46:12;;;;;;;;;;;;;;;5.90;58.71;102300.09;5061823;28;20325;-79
2022/04/27 01:48:37;;;;;;;;;;;;;;;5.89;58.65;102298.38;5066423;28;19923;-78
2022/04/27 01:51:02;;;;;;;;;;;;;;;5.80;59.69;102300.81;5069100;28;19972;-79
2022/04/27 01:56:12;;;;;;;;;;;;;;;5.58;59.97;102297.81;5065851;28;20271;-79
2022/04/27 01:58:37;;;;;;;;;;;;;;;5.58;59.75;102308.16;5066404;28;19912;-78
2022/04/27 02:01:02;;;;;;;;;;;;;;;5.60;59.25;102305.59;5066592;28;19920;-78
2022/04/27 02:03:27;;;;;;;;;;;;;;;5.61;59.64;102305.63;5065013;28;19951;-79
2022/04/27 02:05:52;;;;;;;;;;;;;;;5.61;59.51;102303.06;5065374;28;19920;-78
2022/04/27 02:08:18;;;;;;;;;;;;;;;5.58;59.94;102307.25;5066293;28;20005;-78
2022/04/27 02:10:43;;;;;;;;;;;;;;;5.57;59.89;102302.94;5066105;28;19916;-78
2022/04/27 02:13:09;;;;;;;;;;;;;;;5.58;59.53;102317.59;5063752;28;20011;-78
2022/04/27 02:15:35;;;;;;;;;;;;;;;5.59;59.97;102317.63;5068243;28;19912;-78
2022/04/27 02:18:00;;;;;;;;;;;;;;;5.59;60.17;102317.63;5067549;28;20431;-78
2022/04/27 02:20:26;;;;;;;;;;;;;;;5.57;60.12;102321.91;5065426;28;19923;-78
2022/04/27 02:22:51;;;;;;;;;;;;;;;5.56;59.71;102329.59;5067612;28;20000;-78
2022/04/27 02:25:17;;;;;;;;;;;;;;;5.54;59.84;102332.16;5066657;28;19912;-78
2022/04/27 02:27:43;;;;;;;;;;;;;;;5.56;59.48;102327.00;5061849;28;19977;-78
2022/04/27 02:30:08;;;;;;;;;;;;;;;5.56;59.39;102322.75;5063854;28;19913;-78
2022/04/27 02:32:34;;;;;;;;;;;;;;;5.56;59.85;102324.44;5064135;28;19967;-78
2022/04/27 02:34:59;;;;;;;;;;;;;;;5.53;59.99;102330.41;5067264;28;19912;-78
2022/04/27 02:37:24;;;;;;;;;;;;;;;5.49;60.12;102328.59;5066356;28;19948;-79
2022/04/27 02:39:49;;;;;;;;;;;;;;;5.37;60.27;102330.97;5066679;28;19916;-78
2022/04/27 02:42:17;;;;;;;;;;;;;;;5.24;60.70;102333.31;5069013;28;20351;-78
2022/04/27 02:44:43;;;;;;;;;;;;;;;5.16;60.91;102324.50;5040794;28;20006;-78
2022/04/27 02:47:08;;;;;;;;;;;;;;;5.12;61.29;102330.47;5063928;28;20074;-78
2022/04/27 02:52:17;;;;;;;;;;;;;;;5.01;61.63;102335.41;5064338;28;19967;-78
2022/04/27 02:54:42;;;;;;;;;;;;;;;5.02;61.52;102331.97;5065763;28;20023;-78
2022/04/27 02:57:08;;;;;;;;;;;;;;;5.01;61.45;102328.53;5065376;28;19923;-78
2022/04/27 02:59:33;;;;;;;;;;;;;;;4.96;61.82;102331.84;5062837;28;19919;-78
2022/04/27 03:01:59;;;;;;;;;;;;;;;4.92;61.67;102332.59;5068125;28;20351;-78
2022/04/27 03:04:24;;;;;;;;;;;;;;;4.85;61.83;102344.50;5065967;28;19999;-78
2022/04/27 03:06:49;;;;;;;;;;;;;;;4.80;62.07;102338.34;5068325;28;19912;-78
2022/04/27 03:09:14;;;;;;;;;;;;;;;4.77;62.09;102331.44;5061715;28;19999;-78
2022/04/27 03:11:39;;;;;;;;;;;;;;;4.80;62.09;102331.50;5060727;28;20325;-78
2022/04/27 03:14:05;;;;;;;;;;;;;;;4.81;62.68;102335.81;5064598;28;19912;-78
2022/04/27 03:16:30;;;;;;;;;;;;;;;4.84;62.20;102337.59;5045837;28;19959;-78
2022/04/27 03:18:55;;;;;;;;;;;;;;;4.84;62.25;102337.59;5055792;28;20363;-78
2022/04/27 03:21:20;;;;;;;;;;;;;;;4.89;62.75;102340.25;5040744;28;19927;-78
2022/04/27 03:23:45;;;;;;;;;;;;;;;4.93;62.60;102342.97;5042688;28;19916;-78
2022/04/27 03:26:10;;;;;;;;;;;;;;;4.97;62.55;102343.91;5048624;28;20425;-78
2022/04/27 03:28:36;;;;;;;;;;;;;;;4.99;62.28;102348.25;5047472;28;19916;-78
2022/04/27 03:31:01;;;;;;;;;;;;;;;4.97;62.63;102349.91;5046490;28;19955;-78
2022/04/27 03:33:26;;;;;;;;;;;;;;;4.99;62.10;102342.22;5045698;28;19928;-78
2022/04/27 03:35:51;;;;;;;;;;;;;;;4.99;62.00;102342.22;5043246;28;19912;-79
2022/04/27 03:38:18;;;;;;;;;;;;;;;4.98;61.94;102343.91;5040448;28;19920;-78
2022/04/27 03:40:44;;;;;;;;;;;;;;;4.99;62.31;102348.25;5041851;28;19928;-78
2022/04/27 03:43:09;;;;;;;;;;;;;;;4.96;62.28;102348.16;5043151;28;20833;-78
2022/04/27 03:45:34;;;;;;;;;;;;;;;4.93;61.83;102348.13;5042039;28;19967;-78
2022/04/27 03:47:59;;;;;;;;;;;;;;;4.91;61.70;102349.81;5041094;28;19921;-78
2022/04/27 03:50:24;;;;;;;;;;;;;;;4.90;61.84;102352.31;5042819;28;19971;-78
2022/04/27 03:52:50;;;;;;;;;;;;;;;4.84;62.04;102353.94;5044152;28;19913;-78
2022/04/27 03:55:15;;;;;;;;;;;;;;;4.81;62.07;102360.72;5041559;28;19920;-77
2022/04/27 03:57:40;;;;;;;;;;;;;;;4.79;62.31;102364.97;5043085;28;19921;-77
2022/04/27 04:00:06;;;;;;;;;;;;;;;4.80;62.68;102370.19;5042965;28;19913;-78
2022/04/27 04:02:32;;;;;;;;;;;;;;;4.76;62.53;102365.78;5042808;28;19917;-78
2022/04/27 04:04:57;;;;;;;;;;;;;;;4.76;62.77;102364.94;5043434;28;21332;-78
2022/04/27 04:07:22;;;;;;;;;;;;;;;4.75;62.22;102370.91;5043687;28;19921;-78
2022/04/27 04:09:47;;;;;;;;;;;;;;;4.72;62.36;102369.13;5043056;28;19999;-78
2022/04/27 04:12:13;;;;;;;;;;;;;;;4.69;62.41;102375.09;5041381;28;19921;-78
2022/04/27 04:14:38;;;;;;;;;;;;;;;4.67;62.77;102381.06;5046022;28;19955;-78
2022/04/27 04:17:04;;;;;;;;;;;;;;;4.68;62.41;102382.78;5045361;28;20903;-78
2022/04/27 04:19:29;;;;;;;;;;;;;;;4.67;62.78;102381.91;5056692;28;19999;-78
2022/04/27 04:21:54;;;;;;;;;;;;;;;4.64;62.68;102381.81;5045746;28;19916;-78
2022/04/27 04:24:19;;;;;;;;;;;;;;;4.62;62.83;102380.91;5066626;28;19920;-78
2022/04/27 04:29:31;;;;;;;;;;;;;;;4.54;62.87;102385.03;5060643;28;20286;-78
2022/04/27 04:31:56;;;;;;;;;;;;;;;4.54;63.03;102385.88;5062549;28;19920;-78
2022/04/27 04:34:21;;;;;;;;;;;;;;;4.54;62.98;102395.34;5066751;28;19920;-78
2022/04/27 04:36:46;;;;;;;;;;;;;;;4.52;62.54;102391.84;5067363;28;19931;-78
2022/04/27 04:39:12;;;;;;;;;;;;;;;4.47;62.79;102396.00;5067810;28;19948;-77
2022/04/27 04:41:37;;;;;;;;;;;;;;;4.40;62.74;102398.47;5062633;28;19912;-78
2022/04/27 04:44:02;;;;;;;;;;;;;;;4.39;62.67;102398.41;5061475;28;19927;-77
2022/04/27 04:46:27;;;;;;;;;;;;;;;4.37;62.84;102413.84;5065311;28;20032;-78
2022/04/27 04:48:52;;;;;;;;;;;;;;;4.30;63.11;102411.91;5066804;28;19920;-77
2022/04/27 04:51:18;;;;;;;;;;;;;;;4.25;62.87;102409.22;5068063;28;19973;-78
2022/04/27 04:53:43;;;;;;;;;;;;;;;4.22;62.93;102418.59;5067147;28;19912;-77
2022/04/27 04:56:08;;;;;;;;;;;;;;;4.18;63.31;102421.91;5065129;28;19921;-78
2022/04/27 04:58:33;;;;;;;;;;;;;;;4.16;63.38;102424.47;5065150;28;19912;-77
2022/04/27 05:01:01;;;;;;;;;;;;;;;4.18;63.46;102425.38;5062147;28;19946;-77
2022/04/27 05:03:26;;;;;;;;;;;;;;;4.21;63.34;102422.00;5062968;28;19921;-77
2022/04/27 05:05:51;;;;;;;;;;;;;;;4.22;63.68;102428.91;5063199;28;20243;-78
2022/04/27 05:08:16;;;;;;;;;;;;;;;4.26;63.37;102435.88;5064374;28;20374;-77
2022/04/27 05:10:41;;;;;;;;;;;;;;;4.30;63.58;102435.09;5062524;28;19916;-77
2022/04/27 05:13:06;;;;;;;;;;;;;;;4.34;63.78;102428.34;5069061;28;19960;-78
2022/04/27 05:15:32;;;;;;;;;;;;;;;4.39;64.25;102426.75;5067178;28;19916;-77
2022/04/27 05:17:57;;;;;;;;;;;;;;;4.46;64.09;102428.66;5066221;28;19912;-77
2022/04/27 05:20:22;;;;;;;;;;;;;;;4.54;63.86;102437.44;5068070;28;19917;-77
2022/04/27 05:22:47;;;;;;;;;;;;;;;4.58;63.71;102432.38;5065123;28;20348;-77
2022/04/27 05:25:12;;;;;;;;;;;;;;;4.62;64.21;102445.34;5064479;28;20385;-76
2022/04/27 05:27:38;;;;;;;;;;;;;;;4.69;64.43;102442.13;5070657;28;19917;-77
2022/04/27 05:32:48;;;;;;;;;;;;;;;4.86;64.34;102449.38;5071788;28;19922;-77
2022/04/27 05:35:14;;;;;;;;;;;;;;;4.94;63.80;102458.19;5069867;28;19921;-77
2022/04/27 05:37:39;;;;;;;;;;;;;;;5.03;64.23;102451.50;5070850;28;19920;-78
2022/04/27 05:40:05;;;;;;;;;;;;;;;5.09;64.25;102449.91;5073494;28;19912;-77
2022/04/27 05:42:31;;;;;;;;;;;;;;;5.12;64.37;102455.16;5070586;28;20255;-78
2022/04/27 05:44:57;;;;;;;;;;;;;;;5.19;64.13;102463.06;5070398;28;20003;-78
2022/04/27 05:47:23;;;;;;;;;;;;;;;5.26;64.14;102455.47;5068025;28;19912;-77
2022/04/27 05:49:50;;;;;;;;;;;;;;;5.32;64.43;102460.75;5048459;28;19912;-77
2022/04/27 05:52:15;;;;;;;;;;;;;;;5.40;63.72;102458.34;5068727;28;19975;-78
2022/04/27 05:54:40;;;;;;;;;;;;;;;5.50;63.96;102463.72;5052140;28;19912;-77
2022/04/27 05:57:05;;;;;;;;;;;;;;;5.57;64.33;102461.31;5069501;28;19951;-77
2022/04/27 05:59:31;;;;;;;;;;;;;;;5.64;64.07;102471.78;5066579;28;19958;-78
2022/04/27 06:01:56;;;;;;;;;;;;;;;5.70;64.33;102470.19;5071667;28;19916;-78
2022/04/27 06:04:21;;;;;;;;;;;;;;;5.76;64.20;102479.78;5066383;28;20010;-77
2022/04/27 06:06:46;;;;;;;;;;;;;;;5.84;64.86;102472.19;5071832;28;19978;-77
2022/04/27 06:09:13;;;;;;;;;;;;;;;5.90;65.21;102470.59;5066885;28;20044;-77
2022/04/27 06:11:38;;;;;;;;;;;;;;;5.97;64.21;102473.31;5054354;28;20429;-77
2022/04/27 06:14:03;;;;;;;;;;;;;;;6.03;65.33;102476.03;5070924;28;19912;-77
2022/04/27 06:16:32;;;;;;;;;;;;;;;6.07;66.07;102477.84;5073590;28;19928;-77
2022/04/27 06:18:57;;;;;;;;;;;;;;;6.14;65.18;102477.13;5043341;28;20300;-77
2022/04/27 06:21:22;;;;;;;;;;;;;;;6.22;64.21;102477.28;5053177;28;19923;-78
2022/04/27 06:23:47;;;;;;;;;;;;;;;6.28;64.98;102476.50;5049807;28;19912;-77
2022/04/27 06:26:14;;;;;;;;;;;;;;;6.35;65.35;102483.50;5052045;28;20367;-77
2022/04/27 06:28:39;;;;;;;;;;;;;;;6.44;65.84;102483.69;5051192;28;19924;-77
2022/04/27 06:31:04;;;;;;;;;;;;;;;6.52;65.39;102499.34;5051813;28;19913;-78
2022/04/27 06:33:30;;;;;;;;;;;;;;;6.60;64.56;102494.31;5052618;28;19913;-77
2022/04/27 06:35:55;;;;;;;;;;;;;;;6.68;65.91;102490.13;5052020;28;20000;-77
2022/04/27 06:38:20;;;;;;;;;;;;;;;6.76;64.57;102500.59;5052605;28;19919;-77
2022/04/27 06:40:46;;;;;;;;;;;;;;;6.85;64.84;102498.19;5052972;28;19916;-78
2022/04/27 06:43:11;;;;;;;;;;;;;;;6.94;64.46;102500.06;5053070;28;19912;-78
2022/04/27 06:45:36;;;;;;;;;;;;;;;7.03;64.23;102500.19;5052329;28;19920;-78
2022/04/27 06:48:05;;;;;;;;;;;;;;;7.09;64.85;102505.47;5053143;28;19917;-77
2022/04/27 06:50:30;;;;;;;;;;;;;;;7.17;65.33;102508.19;5052030;28;20364;-77
2022/04/27 06:52:59;;;;;;;;;;;;;;;7.25;65.06;102510.88;5053542;28;19966;-78
2022/04/27 06:55:25;;;;;;;;;;;;;;;7.33;64.09;102503.22;5034227;28;20264;-77
2022/04/27 06:57:50;;;;;;;;;;;;;;;7.41;65.20;102509.41;5052842;28;20346;-77
2022/04/27 07:00:15;;;;;;;;;;;;;;;7.50;64.78;102511.25;5052714;28;19956;-78
2022/04/27 07:02:40;;;;;;;;;;;;;;;7.58;65.07;102514.81;5050684;28;19913;-77
2022/04/27 07:05:09;;;;;;;;;;;;;;;7.65;64.97;102516.66;5050755;28;20363;-77
2022/04/27 07:07:34;;;;;;;;;;;;;;;7.73;64.71;102515.00;5051495;28;20331;-77
2022/04/27 07:10:01;;;;;;;;;;;;;;;7.81;64.18;102511.66;5052544;28;20010;-77
2022/04/27 07:12:26;;;;;;;;;;;;;;;7.89;64.52;102516.09;5052774;28;20014;-77
2022/04/27 07:14:51;;;;;;;;;;;;;;;7.99;64.25;102511.88;5051449;28;20340;-77
2022/04/27 07:17:17;;;;;;;;;;;;;;;8.06;64.02;102512.81;5051989;28;19913;-78
2022/04/27 07:19:42;;;;;;;;;;;;;;;8.12;63.28;102512.03;5033257;28;19999;-78
2022/04/27 07:22:07;;;;;;;;;;;;;;;8.18;63.50;102517.28;5051673;28;20017;-77
2022/04/27 07:24:33;;;;;;;;;;;;;;;8.25;63.55;102521.69;5051627;28;20332;-77
2022/04/27 07:26:58;;;;;;;;;;;;;;;8.32;63.59;102526.09;5017788;28;19916;-78
2022/04/27 07:29:24;;;;;;;;;;;;;;;8.41;62.85;102525.31;5052038;28;19917;-77
2022/04/27 07:31:49;;;;;;;;;;;;;;;8.48;62.83;102528.88;5048202;28;19959;-77
2022/04/27 07:34:15;;;;;;;;;;;;;;;8.56;62.86;102529.81;5050994;28;20259;-77
2022/04/27 07:36:40;;;;;;;;;;;;;;;8.62;62.59;102529.88;5052299;28;19999;-77
2022/04/27 07:39:08;;;;;;;;;;;;;;;8.68;62.26;102536.00;5050822;28;19919;-77
2022/04/27 07:41:34;;;;;;;;;;;;;;;8.74;61.96;102529.13;5051853;28;19917;-77
2022/04/27 07:43:59;;;;;;;;;;;;;;;8.81;61.70;102535.25;5051917;28;20398;-77
2022/04/27 07:46:24;;;;;;;;;;;;;;;8.86;61.50;102537.88;5051208;28;19919;-78
2022/04/27 07:48:51;;;;;;;;;;;;;;;8.92;61.24;102535.34;5051979;28;20082;-78
2022/04/27 07:51:17;;;;;;;;;;;;;;;8.99;61.21;102533.66;5052119;28;19913;-78
2022/04/27 07:53:42;;;;;;;;;;;;;;;9.04;60.67;102537.16;5051664;28;19919;-78
2022/04/27 07:56:07;;;;;;;;;;;;;;;9.09;60.45;102540.66;5050449;28;20356;-78
2022/04/27 07:58:32;;;;;;;;;;;;;;;9.14;60.32;102543.31;5039635;28;20011;-77
2022/04/27 08:01:00;;;;;;;;;;;;;;;9.20;60.23;102536.44;5047177;28;19959;-77
2022/04/27 08:03:25;;;;;;;;;;;;;;;9.29;60.08;102538.22;5018589;28;19948;-78
2022/04/27 08:05:50;;;;;;;;;;;;;;;9.36;59.71;102546.94;5050612;28;20332;-77
2022/04/27 08:08:15;;;;;;;;;;;;;;;9.39;59.13;102547.81;5051003;28;19916;-78
2022/04/27 08:10:40;;;;;;;;;;;;;;;9.46;59.54;102553.91;5049438;28;19912;-77
2022/04/27 08:13:06;;;;;;;;;;;;;;;9.50;58.54;102558.28;5047692;28;20013;-77
2022/04/27 08:15:31;;;;;;;;;;;;;;;9.54;58.43;102566.94;5041752;28;19913;-78
2022/04/27 08:18:01;;;;;;;;;;;;;;;9.58;58.51;102555.72;5052279;28;20070;-78
2022/04/27 08:23:12;;;;;;;;;;;;;;;9.67;57.37;102560.09;5041594;28;19923;-78
2022/04/27 08:25:38;;;;;;;;;;;;;;;9.71;57.43;102561.88;5042551;28;19921;-78
2022/04/27 08:28:06;;;;;;;;;;;;;;;9.72;57.16;102561.88;5045592;28;20024;-79
2022/04/27 08:30:32;;;;;;;;;;;;;;;9.77;56.97;102561.88;5045132;28;19938;-78
2022/04/27 08:32:59;;;;;;;;;;;;;;;9.81;57.32;102557.59;5044728;28;20381;-79
2022/04/27 08:35:25;;;;;;;;;;;;;;;9.86;57.45;102561.94;5044718;28;20399;-79
2022/04/27 08:37:50;;;;;;;;;;;;;;;9.92;56.72;102566.31;5043105;28;19916;-78
2022/04/27 08:40:15;;;;;;;;;;;;;;;9.94;56.54;102566.28;5041464;28;20268;-78
2022/04/27 08:42:40;;;;;;;;;;;;;;;9.98;56.32;102565.47;5042259;28;19917;-79
2022/04/27 08:45:06;;;;;;;;;;;;;;;10.02;55.94;102567.22;5041785;28;20347;-78
2022/04/27 08:47:32;;;;;;;;;;;;;;;10.07;56.01;102573.31;5042432;28;19921;-79
2022/04/27 08:49:57;;;;;;;;;;;;;;;10.11;55.90;102571.59;5046885;28;20693;-79
2022/04/27 08:52:24;;;;;;;;;;;;;;;10.15;56.07;102574.19;5044151;28;19946;-79
2022/04/27 08:54:50;;;;;;;;;;;;;;;10.17;54.95;102569.88;5041772;28;19925;-79
2022/04/27 08:57:15;;;;;;;;;;;;;;;10.21;55.14;102572.50;5044861;28;19938;-81
2022/04/27 08:59:40;;;;;;;;;;;;;;;10.24;55.13;102567.31;5044270;28;20368;-80
2022/04/27 09:02:22;;;;;;;;;;;;;;;10.28;55.34;102575.13;5041715;28;20033;-79
2022/04/27 09:05:04;;;;;;;;;;;;;;;10.32;54.90;102576.00;5044164;28;19916;-80
2022/04/27 09:07:34;;;;;;;;;;;;;;;10.37;55.17;102569.09;5040429;28;19916;-78
2022/04/27 09:09:59;;;;;;;;;;;;;;;10.42;55.10;102569.13;5041096;28;19962;-79
2022/04/27 09:12:24;;;;;;;;;;;;;;;10.44;54.53;102570.00;5042976;28;19952;-79
2022/04/27 09:14:49;;;;;;;;;;;;;;;10.46;54.17;102574.31;5042603;28;19920;-79
2022/04/27 09:23:21;;;;;;;;;;;;;;;10.66;54.16;102572.66;5062099;28;19924;-79
2022/04/27 09:25:47;;;;;;;;;;;;;;;10.72;54.82;102570.94;5062111;28;19923;-79
2022/04/27 09:28:12;;;;;;;;;;;;;;;10.76;54.22;102567.44;5062131;28;19920;-80
2022/04/27 09:30:37;;;;;;;;;;;;;;;10.81;54.65;102569.19;5058377;28;20236;-78
2022/04/27 09:33:02;;;;;;;;;;;;;;;10.85;54.91;102566.59;5058112;28;19995;-79
2022/04/27 09:35:28;;;;;;;;;;;;;;;10.89;53.44;102573.53;5058342;28;19916;-79
2022/04/27 09:37:53;;;;;;;;;;;;;;;10.93;53.65;102574.44;5056127;28;19920;-79
2022/04/27 09:40:18;;;;;;;;;;;;;;;10.93;53.28;102569.22;5059467;28;19920;-78
2022/04/27 09:42:46;;;;;;;;;;;;;;;10.96;53.44;102574.41;5058474;28;20409;-78
2022/04/27 09:45:14;;;;;;;;;;;;;;;10.95;53.36;102570.06;5042277;28;19938;-79
2022/04/27 09:47:58;;;;;;;;;;;;;;;10.95;53.37;102577.88;5059028;28;20358;-79
2022/04/27 09:50:23;;;;;;;;;;;;;;;10.97;52.91;102578.75;5039152;28;19943;-79
2022/04/27 09:52:48;;;;;;;;;;;;;;;10.99;52.12;102574.41;5060986;28;20368;-79
2022/04/27 09:55:13;;;;;;;;;;;;;;;10.99;51.49;102578.78;5059754;28;19916;-79
2022/04/27 09:57:40;;;;;;;;;;;;;;;11.01;52.42;102571.81;5059201;28;19923;-78
2022/04/27 10:00:06;;;;;;;;;;;;;;;11.02;51.78;102577.03;5060309;28;19936;-79
2022/04/27 10:02:33;;;;;;;;;;;;;;;11.07;52.50;102577.03;5059680;28;19917;-79
2022/04/27 10:04:59;;;;;;;;;;;;;;;11.14;52.29;102572.69;5060167;28;20387;-78
2022/04/27 10:07:25;;;;;;;;;;;;;;;11.20;51.71;102570.09;5060009;28;19955;-78
2022/04/27 10:09:50;;;;;;;;;;;;;;;11.26;52.05;102570.09;5062159;28;19924;-79
2022/04/27 10:12:15;;;;;;;;;;;;;;;11.34;52.22;102583.09;5059354;28;19955;-79
2022/04/27 10:14:41;;;;;;;;;;;;;;;11.39;51.61;102568.31;5061829;28;20605;-79
2022/04/27 10:17:06;;;;;;;;;;;;;;;11.39;51.09;102570.91;5061207;28;19936;-78
2022/04/27 10:19:32;;;;;;;;;;;;;;;11.41;50.91;102566.56;5059116;28;19993;-79
2022/04/27 10:21:57;;;;;;;;;;;;;;;11.38;51.15;102569.19;5062356;28;19966;-79
2022/04/27 10:24:38;;;;;;;;;;;;;;;11.41;51.69;102563.13;5061062;28;19916;-79
2022/04/27 10:27:15;;;;;;;;;;;;;;;11.47;51.50;102563.09;5060394;28;19966;-79
2022/04/27 10:29:40;;;;;;;;;;;;;;;11.55;51.27;102561.34;5062489;28;20324;-79
2022/04/27 10:32:06;;;;;;;;;;;;;;;11.61;50.63;102558.75;5061343;28;20014;-79
2022/04/27 10:34:32;;;;;;;;;;;;;;;11.68;50.22;102560.44;5061187;28;20330;-78
2022/04/27 10:36:57;;;;;;;;;;;;;;;11.79;49.81;102555.19;5043575;28;19923;-79
2022/04/27 10:39:23;;;;;;;;;;;;;;;11.91;50.34;102559.50;5063965;28;19920;-79
2022/04/27 10:41:53;;;;;;;;;;;;;;;12.01;49.77;102556.88;5061173;28;19943;-79
2022/04/27 10:44:18;;;;;;;;;;;;;;;12.08;50.06;102564.69;5062538;28;19927;-79
2022/04/27 10:46:44;;;;;;;;;;;;;;;12.13;49.48;102559.44;5059476;28;19923;-79
2022/04/27 10:49:23;;;;;;;;;;;;;;;12.19;50.67;102554.19;5060535;28;19930;-78
2022/04/27 10:52:07;;;;;;;;;;;;;;;12.24;50.03;102554.16;5060802;28;19920;-78
2022/04/27 10:54:33;;;;;;;;;;;;;;;12.34;50.74;102549.75;5060129;28;19921;-79
2022/04/27 10:57:16;;;;;;;;;;;;;;;12.40;50.32;102554.97;5060156;28;19912;-78
2022/04/27 10:59:44;;;;;;;;;;;;;;;12.37;48.89;102554.97;5058870;28;20098;-79
2022/04/27 11:02:28;;;;;;;;;;;;;;;12.34;49.43;102552.38;5058208;28;19917;-79
2022/04/27 11:04:53;;;;;;;;;;;;;;;12.31;49.64;102545.44;5055872;28;19931;-78
2022/04/27 11:07:37;;;;;;;;;;;;;;;12.28;49.72;102555.91;5057410;28;19916;-78
2022/04/27 11:10:15;;;;;;;;;;;;;;;12.26;50.01;102550.69;5059781;28;20841;-79
2022/04/27 11:12:53;;;;;;;;;;;;;;;12.33;49.11;102548.91;5059132;28;19920;-79
2022/04/27 11:15:25;;;;;;;;;;;;;;;12.40;49.36;102545.38;5060437;28;19926;-78
2022/04/27 11:17:59;;;;;;;;;;;;;;;12.48;49.56;102542.72;5059461;28;19954;-78
2022/04/27 11:20:35;;;;;;;;;;;;;;;12.57;49.93;102545.28;5058586;28;20384;-78
2022/04/27 11:23:03;;;;;;;;;;;;;;;12.65;49.64;102544.34;5059715;28;19928;-78
2022/04/27 11:25:32;;;;;;;;;;;;;;;12.71;49.32;102547.81;5061313;28;20367;-79
2022/04/27 11:27:59;;;;;;;;;;;;;;;12.76;48.49;102545.16;5060272;28;19931;-79
2022/04/27 11:30:24;;;;;;;;;;;;;;;12.77;49.49;102551.22;5062219;28;19920;-79
2022/04/27 11:32:50;;;;;;;;;;;;;;;12.71;48.98;102544.31;5060726;28;19916;-79
2022/04/27 11:35:16;;;;;;;;;;;;;;;12.70;49.78;102553.91;5060674;28;19920;-78
2022/04/27 11:37:41;;;;;;;;;;;;;;;12.71;48.76;102549.53;5060096;28;19923;-79
2022/04/27 11:40:11;;;;;;;;;;;;;;;12.76;49.00;102545.16;5057520;28;19935;-78
2022/04/27 11:42:40;;;;;;;;;;;;;;;12.84;49.21;102543.34;5038907;28;20397;-79
2022/04/27 11:45:06;;;;;;;;;;;;;;;12.99;49.09;102541.47;5053930;28;19951;-78
2022/04/27 11:47:32;;;;;;;;;;;;;;;13.13;48.12;102544.84;5053261;28;20376;-78
2022/04/27 11:49:58;;;;;;;;;;;;;;;13.27;48.24;102543.84;5054441;28;20272;-79
2022/04/27 11:52:23;;;;;;;;;;;;;;;13.39;48.25;102541.09;5058911;28;19924;-79
2022/04/27 11:54:49;;;;;;;;;;;;;;;13.56;47.89;102545.31;5053088;28;19920;-79
2022/04/27 11:57:21;;;;;;;;;;;;;;;13.64;48.48;102543.50;5055483;28;20029;-79
2022/04/27 11:59:47;;;;;;;;;;;;;;;13.66;48.24;102552.22;5057181;28;19921;-78
2022/04/27 12:02:13;;;;;;;;;;;;;;;13.63;47.47;102547.00;5055734;28;20375;-78
2022/04/27 12:04:41;;;;;;;;;;;;;;;13.65;48.00;102547.84;5041313;28;19970;-79
2022/04/27 12:07:10;;;;;;;;;;;;;;;13.63;47.18;102550.47;5061412;28;19916;-79
2022/04/27 12:09:35;;;;;;;;;;;;;;;13.66;47.72;102546.97;5057059;28;20383;-77
2022/04/27 12:12:08;;;;;;;;;;;;;;;13.65;47.49;102551.31;5057177;28;19920;-80
2022/04/27 12:14:34;;;;;;;;;;;;;;;13.61;48.09;102549.63;5054253;28;19928;-79
2022/04/27 12:16:59;;;;;;;;;;;;;;;13.58;47.20;102548.78;5054956;28;19924;-78
2022/04/27 12:19:27;;;;;;;;;;;;;;;13.61;48.04;102546.16;5060363;28;19931;-80
2022/04/27 12:22:10;;;;;;;;;;;;;;;13.66;47.21;102539.13;5059302;28;19916;-79
2022/04/27 12:24:41;;;;;;;;;;;;;;;13.73;46.89;102535.53;5059427;28;19917;-79
2022/04/27 12:27:16;;;;;;;;;;;;;;;13.76;46.97;102532.91;5055432;28;19974;-79
2022/04/27 12:29:41;;;;;;;;;;;;;;;13.85;46.75;102531.91;5056562;28;19982;-79
2022/04/27 12:32:09;;;;;;;;;;;;;;;13.89;46.87;102543.19;5059246;28;19916;-80
2022/04/27 12:37:31;;;;;;;;;;;;;;;13.94;46.58;102542.25;5054658;28;20014;-79
2022/04/27 12:39:56;;;;;;;;;;;;;;;13.87;46.47;102532.78;5054776;28;19920;-80
2022/04/27 12:42:21;;;;;;;;;;;;;;;13.82;45.94;102526.72;5055406;28;19970;-80
2022/04/27 12:44:47;;;;;;;;;;;;;;;13.87;45.79;102529.28;5056855;28;19917;-80
2022/04/27 12:47:13;;;;;;;;;;;;;;;13.95;45.74;102522.22;5057751;28;20002;-78
2022/04/27 12:49:40;;;;;;;;;;;;;;;14.07;45.67;102521.19;5057957;28;20343;-79
2022/04/27 12:52:26;;;;;;;;;;;;;;;14.22;45.92;102520.97;5057839;28;20329;-79
2022/04/27 12:55:01;;;;;;;;;;;;;;;14.38;46.17;102513.75;5056499;28;19916;-79
2022/04/27 12:57:26;;;;;;;;;;;;;;;14.49;45.10;102516.19;5058709;28;19985;-79
2022/04/27 13:00:02;;;;;;;;;;;;;;;14.38;45.91;102525.97;5056098;28;20096;-79
2022/04/27 13:02:28;;;;;;;;;;;;;;;14.26;44.80;102519.16;5054390;28;19920;-79